sensor_id;sensor_type;location;lat;lon;timestamp;P1;durP1;ratioP1;P2;durP2;ratioP2
64351;SDS011;50680;52.626;-8.668;2022-11-20T21:17:06;23.98;;;4.22;;
64351;SDS011;50680;52.626;-8.668;2022-11-20T21:19:40;24.85;;;4.30;;
64351;SDS011;50680;52.626;-8.668;2022-11-20T21:22:06;24.95;;;4.35;;
64351;SDS011;50680;52.626;-8.668;2022-11-20T21:24:34;23.17;;;3.97;;
64351;SDS011;50680;52.626;-8.668;2022-11-20T21:27:02;24.77;;;3.35;;
64351;SDS011;50680;52.626;-8.668;2022-11-20T21:29:30;24.73;;;4.88;;
64351;SDS011;50680;52.626;-8.668;2022-11-20T21:31:57;24.80;;;4.60;;
64351;SDS011;50680;52.626;-8.668;2022-11-20T21:34:24;19.20;;;4.50;;
64351;SDS011;50680;52.626;-8.668;2022-11-20T21:36:51;14.70;;;3.53;;
64351;SDS011;50680;52.626;-8.668;2022-11-20T21:39:18;17.80;;;3.78;;
64351;SDS011;50680;52.626;-8.668;2022-11-20T21:41:47;23.38;;;4.65;;
64351;SDS011;50680;52.626;-8.668;2022-11-20T21:44:14;21.83;;;4.18;;
64351;SDS011;50680;52.626;-8.668;2022-11-20T21:46:56;20.25;;;2.92;;
64351;SDS011;50680;52.626;-8.668;2022-11-20T21:49:23;18.95;;;2.88;;
64351;SDS011;50680;52.626;-8.668;2022-11-20T21:51:50;19.73;;;3.17;;
64351;SDS011;50680;52.626;-8.668;2022-11-20T21:54:18;22.10;;;4.03;;
64351;SDS011;50680;52.626;-8.668;2022-11-20T21:56:45;21.40;;;3.33;;
64351;SDS011;50680;52.626;-8.668;2022-11-20T21:59:12;22.42;;;3.75;;
64351;SDS011;50680;52.626;-8.668;2022-11-20T22:01:39;24.15;;;3.65;;
64351;SDS011;50680;52.626;-8.668;2022-11-20T22:04:11;31.33;;;4.00;;
64351;SDS011;50680;52.626;-8.668;2022-11-20T22:06:38;20.45;;;3.85;;
64351;SDS011;50680;52.626;-8.668;2022-11-20T22:09:05;20.38;;;3.13;;
64351;SDS011;50680;52.626;-8.668;2022-11-20T22:11:32;22.33;;;2.75;;
64351;SDS011;50680;52.626;-8.668;2022-11-20T22:13:59;19.77;;;3.00;;
64351;SDS011;50680;52.626;-8.668;2022-11-20T22:16:45;22.25;;;3.90;;
64351;SDS011;50680;52.626;-8.668;2022-11-20T22:19:15;24.73;;;4.50;;
64351;SDS011;50680;52.626;-8.668;2022-11-20T22:21:44;28.77;;;4.57;;
64351;SDS011;50680;52.626;-8.668;2022-11-20T22:24:12;18.38;;;4.18;;
64351;SDS011;50680;52.626;-8.668;2022-11-20T22:26:39;26.02;;;4.43;;
64351;SDS011;50680;52.626;-8.668;2022-11-20T22:29:07;25.05;;;4.03;;
64351;SDS011;50680;52.626;-8.668;2022-11-20T22:31:39;27.10;;;4.75;;
64351;SDS011;50680;52.626;-8.668;2022-11-20T22:34:07;30.38;;;4.72;;
64351;SDS011;50680;52.626;-8.668;2022-11-20T22:36:36;23.40;;;3.92;;
64351;SDS011;50680;52.626;-8.668;2022-11-20T22:39:04;26.40;;;4.63;;
64351;SDS011;50680;52.626;-8.668;2022-11-20T22:41:31;24.23;;;4.85;;
64351;SDS011;50680;52.626;-8.668;2022-11-20T22:43:59;25.40;;;6.38;;
64351;SDS011;50680;52.626;-8.668;2022-11-20T22:46:29;24.15;;;5.80;;
64351;SDS011;50680;52.626;-8.668;2022-11-20T22:48:58;41.55;;;7.18;;
64351;SDS011;50680;52.626;-8.668;2022-11-20T22:51:28;29.80;;;5.50;;
64351;SDS011;50680;52.626;-8.668;2022-11-20T22:53:57;26.73;;;5.82;;
64351;SDS011;50680;52.626;-8.668;2022-11-20T22:56:24;31.77;;;5.03;;
64351;SDS011;50680;52.626;-8.668;2022-11-20T22:58:51;39.30;;;6.75;;
64351;SDS011;50680;52.626;-8.668;2022-11-20T23:06:18;30.77;;;5.90;;
64351;SDS011;50680;52.626;-8.668;2022-11-20T23:08:46;35.08;;;6.28;;
64351;SDS011;50680;52.626;-8.668;2022-11-20T23:11:17;33.28;;;5.97;;
64351;SDS011;50680;52.626;-8.668;2022-11-20T23:13:46;40.22;;;6.40;;
64351;SDS011;50680;52.626;-8.668;2022-11-20T23:16:17;32.85;;;6.78;;
64351;SDS011;50680;52.626;-8.668;2022-11-20T23:18:47;33.88;;;6.80;;
64351;SDS011;50680;52.626;-8.668;2022-11-20T23:21:39;27.33;;;6.53;;
64351;SDS011;50680;52.626;-8.668;2022-11-20T23:24:07;30.40;;;6.15;;
64351;SDS011;50680;52.626;-8.668;2022-11-20T23:26:36;33.70;;;8.00;;
64351;SDS011;50680;52.626;-8.668;2022-11-20T23:29:04;29.20;;;6.57;;
64351;SDS011;50680;52.626;-8.668;2022-11-20T23:31:32;36.45;;;6.70;;
64351;SDS011;50680;52.626;-8.668;2022-11-20T23:34:00;35.78;;;7.38;;
64351;SDS011;50680;52.626;-8.668;2022-11-20T23:36:27;32.47;;;6.95;;
64351;SDS011;50680;52.626;-8.668;2022-11-20T23:38:54;38.30;;;7.13;;
64351;SDS011;50680;52.626;-8.668;2022-11-20T23:41:21;27.80;;;5.82;;
64351;SDS011;50680;52.626;-8.668;2022-11-20T23:43:48;39.85;;;6.38;;
64351;SDS011;50680;52.626;-8.668;2022-11-20T23:46:15;35.25;;;6.10;;
64351;SDS011;50680;52.626;-8.668;2022-11-20T23:48:42;32.05;;;6.22;;
64351;SDS011;50680;52.626;-8.668;2022-11-20T23:51:11;37.08;;;6.75;;
64351;SDS011;50680;52.626;-8.668;2022-11-20T23:53:38;32.33;;;6.45;;
64351;SDS011;50680;52.626;-8.668;2022-11-20T23:56:05;43.35;;;6.38;;
64351;SDS011;50680;52.626;-8.668;2022-11-20T23:58:34;26.75;;;5.50;;
